159 км

Карта отелей и гостиниц, располагающихся рядом с аэропортом 159 км :

159 км Томская область 59° 52' 12" N, 78° 31' 29.82" E
159 км Томская область 59° 52' 12" N, 78° 31' 29.82" E
Код аэродрома ИКАО
HB68
Код аэродрома RU
ХБ68
Координаты
N59.87000° E078.52495°
Превышение над уровнем моря
82
Основная полоса
Курс магнитный
Длина основной ВПП
Ширина основной ВПП
Покрытие основной ВПП
Освещение ВПП
Тип: 
Вертодром
Класс аэродрома: 
Принадлежность: 
ГА
Статус: 
Недействующий
Сайт: 
E-mail аэродрома: 
Страна: 
Россия
Регион: 
Томская область
Город: 
Дополнительная информация: 

Найти трансфер

С помощью этой формы Вы можете найти трансфер из аэропорта 159 км в город, аэропорт или вокзал:

Карта места

Javascript is required to view this map.

Погода в аэропортах:

Авиационная погода в Архангельске

Регион: 
Погода METAR: 
ULAA 251830Z 19002MPS 160V220 4200 -SHSNRA OVC004CB 01/00 Q1004 R08/590635 NOSIG RMK QBB140 QFE752/1003
Время наблюдения
2021-01-25T18:30:00Z
Температура C
1.0
Точка росы
0.0
Направление ветра
190
Скорость ветра (узлы)
4
Метео видимость
2.61
Явления погоды
-SHSN -SHRA
Условия полета
LIFR
Аэропорт подробнее: 

Авиационная погода в Москве - Остафьево

Регион: 
Погода METAR: 
UUMO 251830Z 15004MPS 120V180 7000 -DZ OVC007 01/M00 Q1012 R07/190055 NOSIG RMK QFE744/0992
Время наблюдения
2021-01-25T18:30:00Z
Температура C
1.0
Точка росы
0.0
Направление ветра
150
Скорость ветра (узлы)
8
Метео видимость
4.35
Явления погоды
-DZ
Условия полета
IFR
Аэропорт подробнее: 

Авиационная погода в Гостомеле

Регион: 
Погода METAR: 
UKKM 251830Z AUTO 14008MPS 9000 -RA OVC007/// 08/07 Q0993
Время наблюдения
2021-01-25T18:30:00Z
Температура C
8.0
Точка росы
7.0
Направление ветра
140
Скорость ветра (узлы)
16
Метео видимость
5.59
Явления погоды
-RA
Условия полета
IFR
Аэропорт подробнее: 

Авиационная погода в Сургуте

Регион: 
Погода METAR: 
USRR 251830Z 12004MPS 1200 1100W R07/2000N SN SCT013 M33/M36 Q1032 R07/39//42 TEMPO 1000 SN BR RMK OBST OBSC QFE769
Время наблюдения
2021-01-25T18:30:00Z
Температура C
-33.0
Точка росы
-36.0
Направление ветра
120
Скорость ветра (узлы)
8
Метео видимость
0.75
Явления погоды
SN
Условия полета
LIFR
Аэропорт подробнее: